sensor_id;sensor_type;location;lat;lon;timestamp;temperature;humidity
19389;DHT22;9830;41.876;23.474;2023-11-19T00:00:09;0.10;99.90
19389;DHT22;9830;41.876;23.474;2023-11-19T00:02:39;0.10;99.90
19389;DHT22;9830;41.876;23.474;2023-11-19T00:05:05;0.20;99.90
19389;DHT22;9830;41.876;23.474;2023-11-19T00:07:37;0.20;99.90
19389;DHT22;9830;41.876;23.474;2023-11-19T00:10:13;0.20;99.90
19389;DHT22;9830;41.876;23.474;2023-11-19T00:12:41;0.20;99.90
19389;DHT22;9830;41.876;23.474;2023-11-19T00:15:07;0.20;99.90
19389;DHT22;9830;41.876;23.474;2023-11-19T00:17:44;0.20;99.90
19389;DHT22;9830;41.876;23.474;2023-11-19T00:20:14;0.20;99.90
19389;DHT22;9830;41.876;23.474;2023-11-19T00:22:41;0.20;99.90
19389;DHT22;9830;41.876;23.474;2023-11-19T00:25:10;0.20;99.90
19389;DHT22;9830;41.876;23.474;2023-11-19T00:27:36;0.20;99.90
19389;DHT22;9830;41.876;23.474;2023-11-19T00:30:06;0.20;99.90
19389;DHT22;9830;41.876;23.474;2023-11-19T00:32:34;0.10;99.90
19389;DHT22;9830;41.876;23.474;2023-11-19T00:35:01;0.10;99.90
19389;DHT22;9830;41.876;23.474;2023-11-19T00:37:28;0.20;99.90
19389;DHT22;9830;41.876;23.474;2023-11-19T00:39:53;0.20;99.90
19389;DHT22;9830;41.876;23.474;2023-11-19T00:42:21;0.20;99.90
19389;DHT22;9830;41.876;23.474;2023-11-19T00:44:47;0.20;99.90
19389;DHT22;9830;41.876;23.474;2023-11-19T00:47:13;0.20;99.90
19389;DHT22;9830;41.876;23.474;2023-11-19T00:49:38;0.20;99.90
19389;DHT22;9830;41.876;23.474;2023-11-19T00:52:05;0.20;99.90
19389;DHT22;9830;41.876;23.474;2023-11-19T00:54:32;0.20;99.90
19389;DHT22;9830;41.876;23.474;2023-11-19T00:56:57;0.20;99.90
19389;DHT22;9830;41.876;23.474;2023-11-19T00:59:23;0.20;99.90
19389;DHT22;9830;41.876;23.474;2023-11-19T01:01:49;0.20;99.90
19389;DHT22;9830;41.876;23.474;2023-11-19T01:04:16;0.20;99.90
19389;DHT22;9830;41.876;23.474;2023-11-19T01:06:42;0.20;99.90
19389;DHT22;9830;41.876;23.474;2023-11-19T01:09:08;0.20;99.90
19389;DHT22;9830;41.876;23.474;2023-11-19T01:11:34;0.20;99.90
19389;DHT22;9830;41.876;23.474;2023-11-19T01:14:00;0.20;99.90
19389;DHT22;9830;41.876;23.474;2023-11-19T01:16:26;0.30;99.90
19389;DHT22;9830;41.876;23.474;2023-11-19T01:18:52;0.30;99.90
19389;DHT22;9830;41.876;23.474;2023-11-19T01:21:18;0.30;99.90
19389;DHT22;9830;41.876;23.474;2023-11-19T01:23:44;0.30;99.90
19389;DHT22;9830;41.876;23.474;2023-11-19T01:26:10;0.30;99.90
19389;DHT22;9830;41.876;23.474;2023-11-19T01:28:39;0.30;99.90
19389;DHT22;9830;41.876;23.474;2023-11-19T01:31:19;0.30;99.90
19389;DHT22;9830;41.876;23.474;2023-11-19T01:33:45;0.30;99.90
19389;DHT22;9830;41.876;23.474;2023-11-19T01:36:14;0.30;99.90
19389;DHT22;9830;41.876;23.474;2023-11-19T01:38:40;0.30;99.90
19389;DHT22;9830;41.876;23.474;2023-11-19T01:41:06;0.30;99.90
19389;DHT22;9830;41.876;23.474;2023-11-19T01:43:39;0.40;99.90
19389;DHT22;9830;41.876;23.474;2023-11-19T01:46:08;0.40;99.90
19389;DHT22;9830;41.876;23.474;2023-11-19T01:48:41;0.40;99.90
19389;DHT22;9830;41.876;23.474;2023-11-19T01:51:08;0.40;99.90
19389;DHT22;9830;41.876;23.474;2023-11-19T01:53:36;0.40;99.90
19389;DHT22;9830;41.876;23.474;2023-11-19T01:56:03;0.40;99.90
19389;DHT22;9830;41.876;23.474;2023-11-19T01:58:29;0.40;99.90
19389;DHT22;9830;41.876;23.474;2023-11-19T02:00:56;0.40;99.90
19389;DHT22;9830;41.876;23.474;2023-11-19T02:03:23;0.40;99.90
19389;DHT22;9830;41.876;23.474;2023-11-19T02:05:51;0.40;99.90
19389;DHT22;9830;41.876;23.474;2023-11-19T02:08:18;0.30;99.90
19389;DHT22;9830;41.876;23.474;2023-11-19T02:10:44;0.30;99.90
19389;DHT22;9830;41.876;23.474;2023-11-19T02:13:10;0.30;99.90
19389;DHT22;9830;41.876;23.474;2023-11-19T02:15:39;0.20;99.90
19389;DHT22;9830;41.876;23.474;2023-11-19T02:20:44;0.20;99.90
19389;DHT22;9830;41.876;23.474;2023-11-19T02:23:10;0.20;99.90
19389;DHT22;9830;41.876;23.474;2023-11-19T02:25:36;0.20;99.90
19389;DHT22;9830;41.876;23.474;2023-11-19T02:28:03;0.20;99.90
19389;DHT22;9830;41.876;23.474;2023-11-19T02:30:30;0.20;99.90
19389;DHT22;9830;41.876;23.474;2023-11-19T02:33:00;0.20;99.90
19389;DHT22;9830;41.876;23.474;2023-11-19T02:35:31;0.20;99.90
19389;DHT22;9830;41.876;23.474;2023-11-19T02:37:57;0.20;99.90
19389;DHT22;9830;41.876;23.474;2023-11-19T02:40:23;0.10;99.90
19389;DHT22;9830;41.876;23.474;2023-11-19T02:42:50;0.00;99.90
19389;DHT22;9830;41.876;23.474;2023-11-19T02:45:16;0.00;99.90
19389;DHT22;9830;41.876;23.474;2023-11-19T02:47:42;0.00;99.90
19389;DHT22;9830;41.876;23.474;2023-11-19T02:50:09;0.10;99.90
19389;DHT22;9830;41.876;23.474;2023-11-19T02:52:43;0.10;99.90
19389;DHT22;9830;41.876;23.474;2023-11-19T02:55:13;0.10;99.90
19389;DHT22;9830;41.876;23.474;2023-11-19T02:57:39;0.20;99.90
19389;DHT22;9830;41.876;23.474;2023-11-19T03:00:15;0.10;99.90
19389;DHT22;9830;41.876;23.474;2023-11-19T03:02:43;0.10;99.90
19389;DHT22;9830;41.876;23.474;2023-11-19T03:05:14;0.10;99.90
19389;DHT22;9830;41.876;23.474;2023-11-19T03:07:45;0.10;99.90
19389;DHT22;9830;41.876;23.474;2023-11-19T03:10:11;0.00;99.90
19389;DHT22;9830;41.876;23.474;2023-11-19T03:12:40;0.00;99.90
19389;DHT22;9830;41.876;23.474;2023-11-19T03:15:07;0.00;99.90
19389;DHT22;9830;41.876;23.474;2023-11-19T03:17:36;0.00;99.90
19389;DHT22;9830;41.876;23.474;2023-11-19T03:20:04;0.00;99.90
19389;DHT22;9830;41.876;23.474;2023-11-19T03:22:32;0.00;99.90
19389;DHT22;9830;41.876;23.474;2023-11-19T03:24:59;0.10;99.90
19389;DHT22;9830;41.876;23.474;2023-11-19T03:27:25;0.00;99.90
19389;DHT22;9830;41.876;23.474;2023-11-19T03:29:51;0.10;99.90
19389;DHT22;9830;41.876;23.474;2023-11-19T03:32:16;0.10;99.90
19389;DHT22;9830;41.876;23.474;2023-11-19T03:34:42;0.10;99.90
19389;DHT22;9830;41.876;23.474;2023-11-19T03:37:07;0.10;99.90
19389;DHT22;9830;41.876;23.474;2023-11-19T03:39:34;0.10;99.90
19389;DHT22;9830;41.876;23.474;2023-11-19T03:41:59;0.10;99.90
19389;DHT22;9830;41.876;23.474;2023-11-19T03:44:26;0.10;99.90
19389;DHT22;9830;41.876;23.474;2023-11-19T03:46:52;0.10;99.90
19389;DHT22;9830;41.876;23.474;2023-11-19T03:49:18;0.10;99.90
19389;DHT22;9830;41.876;23.474;2023-11-19T03:51:43;0.10;99.90
19389;DHT22;9830;41.876;23.474;2023-11-19T03:54:09;0.10;99.90
19389;DHT22;9830;41.876;23.474;2023-11-19T03:56:35;0.10;99.90
19389;DHT22;9830;41.876;23.474;2023-11-19T03:59:00;0.00;99.90
19389;DHT22;9830;41.876;23.474;2023-11-19T04:01:26;0.00;99.90
19389;DHT22;9830;41.876;23.474;2023-11-19T04:03:52;-0.10;99.90
19389;DHT22;9830;41.876;23.474;2023-11-19T04:06:17;-0.10;99.90
19389;DHT22;9830;41.876;23.474;2023-11-19T04:08:43;-0.10;99.90
19389;DHT22;9830;41.876;23.474;2023-11-19T04:11:09;-0.10;99.90
19389;DHT22;9830;41.876;23.474;2023-11-19T04:13:35;-0.10;99.90
19389;DHT22;9830;41.876;23.474;2023-11-19T04:16:00;-0.10;99.90
19389;DHT22;9830;41.876;23.474;2023-11-19T04:18:26;-0.10;99.90
19389;DHT22;9830;41.876;23.474;2023-11-19T04:20:52;-0.10;99.90
19389;DHT22;9830;41.876;23.474;2023-11-19T04:23:19;-0.10;99.90
19389;DHT22;9830;41.876;23.474;2023-11-19T04:25:44;-0.10;99.90
19389;DHT22;9830;41.876;23.474;2023-11-19T04:28:10;-0.10;99.90
19389;DHT22;9830;41.876;23.474;2023-11-19T04:30:36;-0.10;99.90
19389;DHT22;9830;41.876;23.474;2023-11-19T04:33:03;-0.10;99.90
19389;DHT22;9830;41.876;23.474;2023-11-19T04:35:28;-0.10;99.90
19389;DHT22;9830;41.876;23.474;2023-11-19T04:37:54;-0.10;99.90
19389;DHT22;9830;41.876;23.474;2023-11-19T04:40:23;-0.10;99.90
19389;DHT22;9830;41.876;23.474;2023-11-19T04:42:48;-0.10;99.90
19389;DHT22;9830;41.876;23.474;2023-11-19T04:45:14;-0.10;99.90
19389;DHT22;9830;41.876;23.474;2023-11-19T04:47:44;-0.10;99.90
19389;DHT22;9830;41.876;23.474;2023-11-19T04:50:10;-0.10;99.90
19389;DHT22;9830;41.876;23.474;2023-11-19T04:52:38;-0.10;99.90
19389;DHT22;9830;41.876;23.474;2023-11-19T04:55:06;-0.10;99.90
19389;DHT22;9830;41.876;23.474;2023-11-19T04:57:32;-0.10;99.90
19389;DHT22;9830;41.876;23.474;2023-11-19T04:59:58;-0.10;99.90
19389;DHT22;9830;41.876;23.474;2023-11-19T05:02:24;-0.10;99.90
19389;DHT22;9830;41.876;23.474;2023-11-19T05:04:50;-0.10;99.90
19389;DHT22;9830;41.876;23.474;2023-11-19T05:07:15;-0.10;99.90
19389;DHT22;9830;41.876;23.474;2023-11-19T05:09:41;0.00;99.90
19389;DHT22;9830;41.876;23.474;2023-11-19T05:12:08;0.00;99.90
19389;DHT22;9830;41.876;23.474;2023-11-19T05:14:37;0.00;99.90
19389;DHT22;9830;41.876;23.474;2023-11-19T05:17:03;0.00;99.90
19389;DHT22;9830;41.876;23.474;2023-11-19T05:19:29;0.00;99.90
19389;DHT22;9830;41.876;23.474;2023-11-19T05:21:54;0.00;99.90
19389;DHT22;9830;41.876;23.474;2023-11-19T05:24:20;0.00;99.90
19389;DHT22;9830;41.876;23.474;2023-11-19T05:26:46;0.00;99.90
19389;DHT22;9830;41.876;23.474;2023-11-19T05:29:12;0.00;99.90
19389;DHT22;9830;41.876;23.474;2023-11-19T05:31:38;0.00;99.90
19389;DHT22;9830;41.876;23.474;2023-11-19T05:34:04;0.00;99.90
19389;DHT22;9830;41.876;23.474;2023-11-19T05:36:29;0.00;99.90
19389;DHT22;9830;41.876;23.474;2023-11-19T05:38:55;0.00;99.90
19389;DHT22;9830;41.876;23.474;2023-11-19T05:41:21;0.00;99.90
19389;DHT22;9830;41.876;23.474;2023-11-19T05:43:46;0.10;99.90
19389;DHT22;9830;41.876;23.474;2023-11-19T05:46:12;0.10;99.90
19389;DHT22;9830;41.876;23.474;2023-11-19T05:48:39;0.30;99.90
19389;DHT22;9830;41.876;23.474;2023-11-19T05:51:05;1.00;99.90
19389;DHT22;9830;41.876;23.474;2023-11-19T05:53:31;1.90;99.90
19389;DHT22;9830;41.876;23.474;2023-11-19T05:55:57;2.60;99.90
19389;DHT22;9830;41.876;23.474;2023-11-19T05:58:27;3.20;99.90
19389;DHT22;9830;41.876;23.474;2023-11-19T06:00:57;3.60;99.90
19389;DHT22;9830;41.876;23.474;2023-11-19T06:03:23;4.10;99.90
19389;DHT22;9830;41.876;23.474;2023-11-19T06:05:49;4.40;99.90
19389;DHT22;9830;41.876;23.474;2023-11-19T06:08:15;4.90;99.90
19389;DHT22;9830;41.876;23.474;2023-11-19T06:10:42;4.90;99.90
19389;DHT22;9830;41.876;23.474;2023-11-19T06:13:09;5.30;99.90
19389;DHT22;9830;41.876;23.474;2023-11-19T06:15:36;5.90;99.90
19389;DHT22;9830;41.876;23.474;2023-11-19T06:18:03;6.20;99.90
19389;DHT22;9830;41.876;23.474;2023-11-19T06:20:32;6.10;99.90
19389;DHT22;9830;41.876;23.474;2023-11-19T06:22:59;5.80;99.90
19389;DHT22;9830;41.876;23.474;2023-11-19T06:25:25;5.70;99.90
19389;DHT22;9830;41.876;23.474;2023-11-19T06:27:51;5.80;99.90
19389;DHT22;9830;41.876;23.474;2023-11-19T06:30:17;6.10;99.90
19389;DHT22;9830;41.876;23.474;2023-11-19T06:32:42;6.60;99.90
19389;DHT22;9830;41.876;23.474;2023-11-19T06:35:08;7.40;99.90
19389;DHT22;9830;41.876;23.474;2023-11-19T06:37:35;7.30;99.90
19389;DHT22;9830;41.876;23.474;2023-11-19T06:40:02;7.30;99.90
19389;DHT22;9830;41.876;23.474;2023-11-19T06:42:28;6.70;99.90
19389;DHT22;9830;41.876;23.474;2023-11-19T06:44:54;6.70;99.90
19389;DHT22;9830;41.876;23.474;2023-11-19T06:47:19;6.50;99.90
19389;DHT22;9830;41.876;23.474;2023-11-19T06:49:45;6.40;99.90
19389;DHT22;9830;41.876;23.474;2023-11-19T06:52:11;6.80;99.90
19389;DHT22;9830;41.876;23.474;2023-11-19T06:54:39;7.30;99.90
19389;DHT22;9830;41.876;23.474;2023-11-19T06:57:04;8.10;99.90
19389;DHT22;9830;41.876;23.474;2023-11-19T06:59:30;8.30;99.90
19389;DHT22;9830;41.876;23.474;2023-11-19T07:01:56;7.90;99.90
19389;DHT22;9830;41.876;23.474;2023-11-19T07:04:22;7.60;99.90
19389;DHT22;9830;41.876;23.474;2023-11-19T07:06:48;7.60;99.90
19389;DHT22;9830;41.876;23.474;2023-11-19T07:09:17;8.10;99.90
19389;DHT22;9830;41.876;23.474;2023-11-19T07:11:44;8.60;99.40
19389;DHT22;9830;41.876;23.474;2023-11-19T07:14:11;9.20;96.90
19389;DHT22;9830;41.876;23.474;2023-11-19T07:16:38;8.80;95.90
19389;DHT22;9830;41.876;23.474;2023-11-19T07:19:07;9.10;97.20
19389;DHT22;9830;41.876;23.474;2023-11-19T07:21:33;9.60;94.90
19389;DHT22;9830;41.876;23.474;2023-11-19T07:23:59;10.00;94.10
19389;DHT22;9830;41.876;23.474;2023-11-19T07:26:25;9.90;92.20
19389;DHT22;9830;41.876;23.474;2023-11-19T07:28:51;10.20;91.90
19389;DHT22;9830;41.876;23.474;2023-11-19T07:31:17;9.80;90.90
19389;DHT22;9830;41.876;23.474;2023-11-19T07:33:46;10.10;92.40
19389;DHT22;9830;41.876;23.474;2023-11-19T07:36:13;11.00;85.60
19389;DHT22;9830;41.876;23.474;2023-11-19T07:38:39;10.10;89.70
19389;DHT22;9830;41.876;23.474;2023-11-19T07:41:05;9.10;92.60
19389;DHT22;9830;41.876;23.474;2023-11-19T07:43:32;7.90;97.40
19389;DHT22;9830;41.876;23.474;2023-11-19T07:45:58;7.00;99.90
19389;DHT22;9830;41.876;23.474;2023-11-19T07:48:27;7.90;99.90
19389;DHT22;9830;41.876;23.474;2023-11-19T07:50:53;8.60;96.60
19389;DHT22;9830;41.876;23.474;2023-11-19T07:53:19;8.90;93.80
19389;DHT22;9830;41.876;23.474;2023-11-19T07:55:45;9.50;90.00
19389;DHT22;9830;41.876;23.474;2023-11-19T07:58:11;9.70;86.50
19389;DHT22;9830;41.876;23.474;2023-11-19T08:00:38;9.60;87.70
19389;DHT22;9830;41.876;23.474;2023-11-19T08:03:04;9.80;87.70
19389;DHT22;9830;41.876;23.474;2023-11-19T08:05:31;10.10;85.60
19389;DHT22;9830;41.876;23.474;2023-11-19T08:07:56;10.50;84.20
19389;DHT22;9830;41.876;23.474;2023-11-19T08:10:22;10.50;77.30
19389;DHT22;9830;41.876;23.474;2023-11-19T08:12:48;10.70;73.70
19389;DHT22;9830;41.876;23.474;2023-11-19T08:15:14;10.50;78.20
19389;DHT22;9830;41.876;23.474;2023-11-19T08:17:41;10.40;78.10
19389;DHT22;9830;41.876;23.474;2023-11-19T08:20:07;10.50;76.20
19389;DHT22;9830;41.876;23.474;2023-11-19T08:22:36;11.00;71.90
19389;DHT22;9830;41.876;23.474;2023-11-19T08:25:06;11.80;68.20
19389;DHT22;9830;41.876;23.474;2023-11-19T08:27:32;11.50;65.60
19389;DHT22;9830;41.876;23.474;2023-11-19T08:29:58;11.60;67.30
19389;DHT22;9830;41.876;23.474;2023-11-19T08:32:24;11.40;64.90
19389;DHT22;9830;41.876;23.474;2023-11-19T08:34:51;11.30;70.80
19389;DHT22;9830;41.876;23.474;2023-11-19T08:37:16;11.30;71.80
19389;DHT22;9830;41.876;23.474;2023-11-19T08:39:49;11.80;66.50
19389;DHT22;9830;41.876;23.474;2023-11-19T08:42:16;11.90;65.10
19389;DHT22;9830;41.876;23.474;2023-11-19T08:44:42;11.70;68.50
19389;DHT22;9830;41.876;23.474;2023-11-19T08:47:10;11.60;67.30
19389;DHT22;9830;41.876;23.474;2023-11-19T08:49:36;11.40;68.60
19389;DHT22;9830;41.876;23.474;2023-11-19T08:52:02;11.20;74.00
19389;DHT22;9830;41.876;23.474;2023-11-19T08:54:28;11.50;68.40
19389;DHT22;9830;41.876;23.474;2023-11-19T08:56:53;10.90;65.20
19389;DHT22;9830;41.876;23.474;2023-11-19T08:59:19;11.10;69.30
19389;DHT22;9830;41.876;23.474;2023-11-19T09:01:45;11.40;72.80
19389;DHT22;9830;41.876;23.474;2023-11-19T09:04:11;11.30;69.50
19389;DHT22;9830;41.876;23.474;2023-11-19T09:06:37;10.90;68.60
19389;DHT22;9830;41.876;23.474;2023-11-19T09:09:03;11.40;70.40
19389;DHT22;9830;41.876;23.474;2023-11-19T09:11:31;11.00;67.80
19389;DHT22;9830;41.876;23.474;2023-11-19T09:13:57;10.70;72.40
19389;DHT22;9830;41.876;23.474;2023-11-19T09:16:22;10.50;74.40
19389;DHT22;9830;41.876;23.474;2023-11-19T09:18:48;10.60;74.20
19389;DHT22;9830;41.876;23.474;2023-11-19T09:21:14;10.50;75.10
19389;DHT22;9830;41.876;23.474;2023-11-19T09:23:39;10.90;74.30
19389;DHT22;9830;41.876;23.474;2023-11-19T09:26:06;10.70;73.10
19389;DHT22;9830;41.876;23.474;2023-11-19T09:28:33;10.80;73.70
19389;DHT22;9830;41.876;23.474;2023-11-19T09:30:59;10.90;76.10
19389;DHT22;9830;41.876;23.474;2023-11-19T09:33:25;10.90;72.60
19389;DHT22;9830;41.876;23.474;2023-11-19T09:35:51;10.70;72.70
19389;DHT22;9830;41.876;23.474;2023-11-19T09:38:17;10.70;73.50
19389;DHT22;9830;41.876;23.474;2023-11-19T09:40:43;10.50;74.40
19389;DHT22;9830;41.876;23.474;2023-11-19T09:43:09;10.60;78.60
19389;DHT22;9830;41.876;23.474;2023-11-19T09:45:51;11.10;74.50
19389;DHT22;9830;41.876;23.474;2023-11-19T09:48:17;10.70;74.80
19389;DHT22;9830;41.876;23.474;2023-11-19T09:50:47;10.60;75.00
19389;DHT22;9830;41.876;23.474;2023-11-19T09:53:17;10.60;75.50
19389;DHT22;9830;41.876;23.474;2023-11-19T09:55:43;10.90;73.70
19389;DHT22;9830;41.876;23.474;2023-11-19T09:58:12;10.70;73.30
19389;DHT22;9830;41.876;23.474;2023-11-19T10:00:40;10.40;73.40
19389;DHT22;9830;41.876;23.474;2023-11-19T10:03:07;10.80;73.00
19389;DHT22;9830;41.876;23.474;2023-11-19T10:05:34;10.90;71.40
19389;DHT22;9830;41.876;23.474;2023-11-19T10:08:01;10.90;74.40
19389;DHT22;9830;41.876;23.474;2023-11-19T10:10:28;11.10;71.30
19389;DHT22;9830;41.876;23.474;2023-11-19T10:12:55;11.20;68.50
19389;DHT22;9830;41.876;23.474;2023-11-19T10:15:22;11.60;66.10
19389;DHT22;9830;41.876;23.474;2023-11-19T10:17:49;11.20;69.70
19389;DHT22;9830;41.876;23.474;2023-11-19T10:20:15;11.50;69.30
19389;DHT22;9830;41.876;23.474;2023-11-19T10:22:41;11.30;67.40
19389;DHT22;9830;41.876;23.474;2023-11-19T10:25:22;11.50;68.10
19389;DHT22;9830;41.876;23.474;2023-11-19T10:27:49;11.90;66.60
19389;DHT22;9830;41.876;23.474;2023-11-19T10:30:21;11.50;69.70
19389;DHT22;9830;41.876;23.474;2023-11-19T10:35:28;10.70;69.30
19389;DHT22;9830;41.876;23.474;2023-11-19T10:37:53;10.30;83.80
19389;DHT22;9830;41.876;23.474;2023-11-19T10:40:19;9.90;82.50
19389;DHT22;9830;41.876;23.474;2023-11-19T10:42:45;9.40;90.50
19389;DHT22;9830;41.876;23.474;2023-11-19T10:45:23;8.50;92.90
19389;DHT22;9830;41.876;23.474;2023-11-19T10:47:51;8.20;98.30
19389;DHT22;9830;41.876;23.474;2023-11-19T10:50:17;8.00;99.90
19389;DHT22;9830;41.876;23.474;2023-11-19T10:52:44;8.00;97.80
19389;DHT22;9830;41.876;23.474;2023-11-19T10:55:11;8.00;98.80
19389;DHT22;9830;41.876;23.474;2023-11-19T10:57:43;8.10;99.90
19389;DHT22;9830;41.876;23.474;2023-11-19T11:00:13;8.10;99.90
19389;DHT22;9830;41.876;23.474;2023-11-19T11:02:45;7.50;96.70
19389;DHT22;9830;41.876;23.474;2023-11-19T11:05:16;7.50;99.90
19389;DHT22;9830;41.876;23.474;2023-11-19T11:07:44;7.60;99.40
19389;DHT22;9830;41.876;23.474;2023-11-19T11:10:12;7.40;99.90
19389;DHT22;9830;41.876;23.474;2023-11-19T11:12:40;7.40;99.90
19389;DHT22;9830;41.876;23.474;2023-11-19T11:15:08;7.60;99.30
19389;DHT22;9830;41.876;23.474;2023-11-19T11:17:39;7.50;99.90
19389;DHT22;9830;41.876;23.474;2023-11-19T11:20:08;7.30;99.90
19389;DHT22;9830;41.876;23.474;2023-11-19T11:26:05;7.10;99.90
19389;DHT22;9830;41.876;23.474;2023-11-19T11:28:58;7.30;99.90
19389;DHT22;9830;41.876;23.474;2023-11-19T11:39:53;7.00;99.90
19389;DHT22;9830;41.876;23.474;2023-11-19T11:50:12;7.10;99.90
19389;DHT22;9830;41.876;23.474;2023-11-19T11:53:15;7.00;99.90
19389;DHT22;9830;41.876;23.474;2023-11-19T11:58:13;7.10;99.90
19389;DHT22;9830;41.876;23.474;2023-11-19T12:00:40;7.30;99.90
19389;DHT22;9830;41.876;23.474;2023-11-19T12:03:08;7.10;99.90
19389;DHT22;9830;41.876;23.474;2023-11-19T12:05:43;7.00;99.80
19389;DHT22;9830;41.876;23.474;2023-11-19T12:08:11;6.90;99.90
19389;DHT22;9830;41.876;23.474;2023-11-19T12:10:45;6.90;99.90
19389;DHT22;9830;41.876;23.474;2023-11-19T12:13:11;6.70;99.90
19389;DHT22;9830;41.876;23.474;2023-11-19T12:20:50;6.60;99.90
19389;DHT22;9830;41.876;23.474;2023-11-19T12:23:16;6.70;99.90
19389;DHT22;9830;41.876;23.474;2023-11-19T12:25:42;6.70;99.90
19389;DHT22;9830;41.876;23.474;2023-11-19T12:28:12;6.60;99.90
19389;DHT22;9830;41.876;23.474;2023-11-19T12:30:39;6.60;99.90
19389;DHT22;9830;41.876;23.474;2023-11-19T12:33:12;6.50;99.90
19389;DHT22;9830;41.876;23.474;2023-11-19T12:35:41;6.30;99.90
19389;DHT22;9830;41.876;23.474;2023-11-19T12:38:17;6.40;99.90
19389;DHT22;9830;41.876;23.474;2023-11-19T12:40:43;6.40;99.90
19389;DHT22;9830;41.876;23.474;2023-11-19T12:43:09;6.50;99.90
19389;DHT22;9830;41.876;23.474;2023-11-19T12:45:36;6.30;99.90
19389;DHT22;9830;41.876;23.474;2023-11-19T12:48:07;6.30;99.90
19389;DHT22;9830;41.876;23.474;2023-11-19T12:50:58;6.30;99.90
19389;DHT22;9830;41.876;23.474;2023-11-19T12:53:26;6.30;99.90
19389;DHT22;9830;41.876;23.474;2023-11-19T12:55:53;6.40;99.90
19389;DHT22;9830;41.876;23.474;2023-11-19T12:58:32;6.50;99.90
19389;DHT22;9830;41.876;23.474;2023-11-19T13:01:06;6.70;99.90
19389;DHT22;9830;41.876;23.474;2023-11-19T13:03:34;6.80;99.90
19389;DHT22;9830;41.876;23.474;2023-11-19T13:06:04;6.80;99.90
19389;DHT22;9830;41.876;23.474;2023-11-19T13:08:44;6.70;99.90
19389;DHT22;9830;41.876;23.474;2023-11-19T13:11:11;6.80;99.90
19389;DHT22;9830;41.876;23.474;2023-11-19T13:13:57;6.90;99.90
19389;DHT22;9830;41.876;23.474;2023-11-19T13:16:24;7.00;99.90
19389;DHT22;9830;41.876;23.474;2023-11-19T13:18:50;7.00;99.90
19389;DHT22;9830;41.876;23.474;2023-11-19T13:21:15;6.90;99.90
19389;DHT22;9830;41.876;23.474;2023-11-19T13:23:42;7.00;99.90
19389;DHT22;9830;41.876;23.474;2023-11-19T13:26:08;6.80;99.90
19389;DHT22;9830;41.876;23.474;2023-11-19T13:28:34;6.70;99.90
19389;DHT22;9830;41.876;23.474;2023-11-19T13:31:00;6.60;99.90
19389;DHT22;9830;41.876;23.474;2023-11-19T13:33:26;6.40;99.90
19389;DHT22;9830;41.876;23.474;2023-11-19T13:35:52;6.40;99.90
19389;DHT22;9830;41.876;23.474;2023-11-19T13:38:18;6.30;99.90
19389;DHT22;9830;41.876;23.474;2023-11-19T13:40:44;6.20;99.90
19389;DHT22;9830;41.876;23.474;2023-11-19T13:43:10;6.20;99.90
19389;DHT22;9830;41.876;23.474;2023-11-19T13:45:37;6.00;99.90
19389;DHT22;9830;41.876;23.474;2023-11-19T13:48:03;5.80;99.90
19389;DHT22;9830;41.876;23.474;2023-11-19T13:50:29;5.80;99.90
19389;DHT22;9830;41.876;23.474;2023-11-19T13:52:55;5.70;99.90
19389;DHT22;9830;41.876;23.474;2023-11-19T13:55:21;5.70;99.90
19389;DHT22;9830;41.876;23.474;2023-11-19T13:57:48;5.60;99.90
19389;DHT22;9830;41.876;23.474;2023-11-19T14:00:14;5.50;99.90
19389;DHT22;9830;41.876;23.474;2023-11-19T14:02:47;5.40;99.90
19389;DHT22;9830;41.876;23.474;2023-11-19T14:05:14;5.30;99.90
19389;DHT22;9830;41.876;23.474;2023-11-19T14:07:41;5.10;99.90
19389;DHT22;9830;41.876;23.474;2023-11-19T14:10:07;4.80;99.90
19389;DHT22;9830;41.876;23.474;2023-11-19T14:12:42;4.70;99.90
19389;DHT22;9830;41.876;23.474;2023-11-19T14:15:09;4.60;99.90
19389;DHT22;9830;41.876;23.474;2023-11-19T14:17:38;4.40;99.90
19389;DHT22;9830;41.876;23.474;2023-11-19T14:20:04;4.30;99.90
19389;DHT22;9830;41.876;23.474;2023-11-19T14:22:39;4.10;99.90
19389;DHT22;9830;41.876;23.474;2023-11-19T14:25:05;4.10;99.90
19389;DHT22;9830;41.876;23.474;2023-11-19T14:27:32;4.00;99.90
19389;DHT22;9830;41.876;23.474;2023-11-19T14:29:57;4.00;99.90
19389;DHT22;9830;41.876;23.474;2023-11-19T14:32:23;3.90;99.90
19389;DHT22;9830;41.876;23.474;2023-11-19T14:34:49;3.90;99.90
19389;DHT22;9830;41.876;23.474;2023-11-19T14:37:14;3.90;99.90
19389;DHT22;9830;41.876;23.474;2023-11-19T14:39:41;3.90;99.90
19389;DHT22;9830;41.876;23.474;2023-11-19T14:42:07;3.80;99.90
19389;DHT22;9830;41.876;23.474;2023-11-19T14:44:34;3.80;99.90
19389;DHT22;9830;41.876;23.474;2023-11-19T14:46:59;3.80;99.90
19389;DHT22;9830;41.876;23.474;2023-11-19T14:49:27;3.90;99.90
19389;DHT22;9830;41.876;23.474;2023-11-19T14:51:53;3.90;99.90
19389;DHT22;9830;41.876;23.474;2023-11-19T14:54:21;3.80;99.90
19389;DHT22;9830;41.876;23.474;2023-11-19T14:56:47;3.60;99.90
19389;DHT22;9830;41.876;23.474;2023-11-19T14:59:13;3.50;99.90
19389;DHT22;9830;41.876;23.474;2023-11-19T15:01:39;3.50;99.90
19389;DHT22;9830;41.876;23.474;2023-11-19T15:04:05;3.50;99.90
19389;DHT22;9830;41.876;23.474;2023-11-19T15:06:31;3.50;99.90
19389;DHT22;9830;41.876;23.474;2023-11-19T15:08:59;3.40;99.90
19389;DHT22;9830;41.876;23.474;2023-11-19T15:11:24;3.40;99.90
19389;DHT22;9830;41.876;23.474;2023-11-19T15:13:50;3.40;99.90
19389;DHT22;9830;41.876;23.474;2023-11-19T15:16:16;3.40;99.90
19389;DHT22;9830;41.876;23.474;2023-11-19T15:18:47;3.40;99.90
19389;DHT22;9830;41.876;23.474;2023-11-19T15:21:13;3.30;99.90
19389;DHT22;9830;41.876;23.474;2023-11-19T15:23:38;3.30;99.90
19389;DHT22;9830;41.876;23.474;2023-11-19T15:26:06;3.30;99.90
19389;DHT22;9830;41.876;23.474;2023-11-19T15:28:33;3.30;99.90
19389;DHT22;9830;41.876;23.474;2023-11-19T15:30:59;3.30;99.90
19389;DHT22;9830;41.876;23.474;2023-11-19T15:33:24;3.20;99.90
19389;DHT22;9830;41.876;23.474;2023-11-19T15:35:50;3.40;99.90
19389;DHT22;9830;41.876;23.474;2023-11-19T15:38:15;3.40;99.90
19389;DHT22;9830;41.876;23.474;2023-11-19T15:40:41;3.40;99.90
19389;DHT22;9830;41.876;23.474;2023-11-19T15:43:08;3.40;99.90
19389;DHT22;9830;41.876;23.474;2023-11-19T15:45:33;3.30;99.90
19389;DHT22;9830;41.876;23.474;2023-11-19T15:48:05;3.30;99.90
19389;DHT22;9830;41.876;23.474;2023-11-19T15:50:31;3.30;99.90
19389;DHT22;9830;41.876;23.474;2023-11-19T15:52:57;3.30;99.90
19389;DHT22;9830;41.876;23.474;2023-11-19T15:55:24;3.30;99.90
19389;DHT22;9830;41.876;23.474;2023-11-19T15:57:50;3.20;99.90
19389;DHT22;9830;41.876;23.474;2023-11-19T16:00:16;3.30;99.90
19389;DHT22;9830;41.876;23.474;2023-11-19T16:02:42;3.30;99.90
19389;DHT22;9830;41.876;23.474;2023-11-19T16:05:08;3.20;99.90
19389;DHT22;9830;41.876;23.474;2023-11-19T16:07:35;3.20;99.90
19389;DHT22;9830;41.876;23.474;2023-11-19T16:10:01;3.10;99.90
19389;DHT22;9830;41.876;23.474;2023-11-19T16:12:30;3.10;99.90
19389;DHT22;9830;41.876;23.474;2023-11-19T16:14:56;3.10;99.90